sensor_id;sensor_type;location;lat;lon;timestamp;temperature;humidity
5828;DHT22;42583;50.240;8.444;2022-09-20T00:09:46;9.40;99.90
5828;DHT22;42583;50.240;8.444;2022-09-20T00:24:47;9.40;99.90
5828;DHT22;42583;50.240;8.444;2022-09-20T00:39:47;9.20;99.90
5828;DHT22;42583;50.240;8.444;2022-09-20T00:54:48;9.10;99.90
5828;DHT22;42583;50.240;8.444;2022-09-20T01:09:49;9.20;99.90
5828;DHT22;42583;50.240;8.444;2022-09-20T01:40:29;9.00;99.90
5828;DHT22;42583;50.240;8.444;2022-09-20T01:55:37;8.90;99.90
5828;DHT22;42583;50.240;8.444;2022-09-20T02:10:46;8.80;99.90
5828;DHT22;42583;50.240;8.444;2022-09-20T03:11:15;8.50;99.90
5828;DHT22;42583;50.240;8.444;2022-09-20T03:42:00;8.20;99.90
5828;DHT22;42583;50.240;8.444;2022-09-20T04:12:25;8.00;99.90
5828;DHT22;42583;50.240;8.444;2022-09-20T04:27:31;8.20;99.90
5828;DHT22;42583;50.240;8.444;2022-09-20T05:29:01;7.90;99.90
5828;DHT22;42583;50.240;8.444;2022-09-20T05:44:40;7.90;99.90
5828;DHT22;42583;50.240;8.444;2022-09-20T05:59:33;8.10;99.90
5828;DHT22;42583;50.240;8.444;2022-09-20T06:30:25;8.60;99.90
5828;DHT22;42583;50.240;8.444;2022-09-20T06:45:26;8.90;99.90
5828;DHT22;42583;50.240;8.444;2022-09-20T07:00:27;9.10;99.90
5828;DHT22;42583;50.240;8.444;2022-09-20T07:15:30;9.20;99.90
5828;DHT22;42583;50.240;8.444;2022-09-20T07:30:31;9.40;99.90
5828;DHT22;42583;50.240;8.444;2022-09-20T07:45:32;9.90;99.90
5828;DHT22;42583;50.240;8.444;2022-09-20T08:00:34;10.90;99.90
5828;DHT22;42583;50.240;8.444;2022-09-20T08:15:34;10.90;99.90
5828;DHT22;42583;50.240;8.444;2022-09-20T08:30:35;11.80;99.90
5828;DHT22;42583;50.240;8.444;2022-09-20T08:45:37;13.20;99.90
5828;DHT22;42583;50.240;8.444;2022-09-20T09:00:39;14.40;97.30
5828;DHT22;42583;50.240;8.444;2022-09-20T09:15:42;15.80;94.50
5828;DHT22;42583;50.240;8.444;2022-09-20T09:30:45;16.10;90.50
5828;DHT22;42583;50.240;8.444;2022-09-20T09:45:46;15.50;83.80
5828;DHT22;42583;50.240;8.444;2022-09-20T10:00:48;16.50;84.50
5828;DHT22;42583;50.240;8.444;2022-09-20T10:15:55;18.60;74.00
5828;DHT22;42583;50.240;8.444;2022-09-20T10:31:43;17.50;69.30
5828;DHT22;42583;50.240;8.444;2022-09-20T11:02:22;20.50;55.60
5828;DHT22;42583;50.240;8.444;2022-09-20T11:17:31;19.70;58.50
5828;DHT22;42583;50.240;8.444;2022-09-20T11:47:57;20.40;57.60
5828;DHT22;42583;50.240;8.444;2022-09-20T12:02:59;19.50;54.10
5828;DHT22;42583;50.240;8.444;2022-09-20T12:18:12;17.30;56.00
5828;DHT22;42583;50.240;8.444;2022-09-20T12:33:19;16.30;59.50
5828;DHT22;42583;50.240;8.444;2022-09-20T12:48:20;16.90;65.50
5828;DHT22;42583;50.240;8.444;2022-09-20T13:18:36;23.90;57.70
5828;DHT22;42583;50.240;8.444;2022-09-20T13:33:38;28.90;48.70
5828;DHT22;42583;50.240;8.444;2022-09-20T13:48:39;33.00;41.50
5828;DHT22;42583;50.240;8.444;2022-09-20T14:03:40;34.10;33.60
5828;DHT22;42583;50.240;8.444;2022-09-20T14:18:47;29.80;34.60
5828;DHT22;42583;50.240;8.444;2022-09-20T14:33:59;23.80;37.30
5828;DHT22;42583;50.240;8.444;2022-09-20T15:04:24;20.20;41.70
5828;DHT22;42583;50.240;8.444;2022-09-20T15:19:27;22.30;42.70
5828;DHT22;42583;50.240;8.444;2022-09-20T15:34:29;26.60;36.60
5828;DHT22;42583;50.240;8.444;2022-09-20T15:49:30;24.30;38.40
5828;DHT22;42583;50.240;8.444;2022-09-20T16:04:32;20.10;39.90
5828;DHT22;42583;50.240;8.444;2022-09-20T16:19:34;17.60;41.90
5828;DHT22;42583;50.240;8.444;2022-09-20T16:34:35;16.00;43.70
5828;DHT22;42583;50.240;8.444;2022-09-20T16:49:36;15.00;44.80
5828;DHT22;42583;50.240;8.444;2022-09-20T17:04:37;14.00;46.30
5828;DHT22;42583;50.240;8.444;2022-09-20T17:19:38;13.30;47.20
5828;DHT22;42583;50.240;8.444;2022-09-20T17:34:38;13.00;48.10
5828;DHT22;42583;50.240;8.444;2022-09-20T17:49:39;12.50;49.60
5828;DHT22;42583;50.240;8.444;2022-09-20T18:04:40;12.10;51.10
5828;DHT22;42583;50.240;8.444;2022-09-20T18:19:41;11.70;51.60
5828;DHT22;42583;50.240;8.444;2022-09-20T18:34:43;11.30;52.90
5828;DHT22;42583;50.240;8.444;2022-09-20T18:49:44;11.00;53.80
5828;DHT22;42583;50.240;8.444;2022-09-20T19:05:06;10.80;57.50
5828;DHT22;42583;50.240;8.444;2022-09-20T19:35:55;10.70;57.20
5828;DHT22;42583;50.240;8.444;2022-09-20T19:50:56;10.60;58.60
5828;DHT22;42583;50.240;8.444;2022-09-20T20:06:07;10.50;59.50
5828;DHT22;42583;50.240;8.444;2022-09-20T20:21:24;10.30;61.00
5828;DHT22;42583;50.240;8.444;2022-09-20T20:36:25;10.30;65.70
5828;DHT22;42583;50.240;8.444;2022-09-20T20:51:26;10.30;69.90
5828;DHT22;42583;50.240;8.444;2022-09-20T21:06:32;10.40;71.80
5828;DHT22;42583;50.240;8.444;2022-09-20T21:21:36;10.30;72.90
5828;DHT22;42583;50.240;8.444;2022-09-20T21:36:38;10.00;72.50
5828;DHT22;42583;50.240;8.444;2022-09-20T21:51:41;9.70;73.70
5828;DHT22;42583;50.240;8.444;2022-09-20T22:06:43;9.40;77.70
5828;DHT22;42583;50.240;8.444;2022-09-20T22:21:48;9.40;80.00
5828;DHT22;42583;50.240;8.444;2022-09-20T22:36:49;9.20;80.80
5828;DHT22;42583;50.240;8.444;2022-09-20T22:51:50;9.00;83.60
5828;DHT22;42583;50.240;8.444;2022-09-20T23:06:52;8.90;82.00
5828;DHT22;42583;50.240;8.444;2022-09-20T23:21:54;8.90;81.40
5828;DHT22;42583;50.240;8.444;2022-09-20T23:36:54;8.70;84.40
5828;DHT22;42583;50.240;8.444;2022-09-20T23:51:55;8.50;85.80
